Time;durP1;ratioP1;P1;durP2;ratioP2;P2;SDS_P1;SDS_P2;PMS_P1;PMS_P2;Temp;Humidity;BMP_temperature;BMP_pressure;BME280_temperature;BME280_humidity;BME280_pressure;Samples;Min_cycle;Max_cycle;Signal;HPM_P1;HPM_P2
2022/06/26 00:00:12;;;;;;;6.22;1.08;;;11.00;99.90;;;;;;5090847;28;20044;-57
2022/06/26 00:02:39;;;;;;;3.45;1.00;;;11.00;99.90;;;;;;5090863;28;20048;-57
2022/06/26 00:05:07;;;;;;;3.88;1.00;;;10.90;99.90;;;;;;5090804;28;20052;-57
2022/06/26 00:07:35;;;;;;;3.78;0.95;;;10.90;99.90;;;;;;5090522;28;20513;-59
2022/06/26 00:10:04;;;;;;;5.07;1.25;;;10.90;99.90;;;;;;5090632;28;20044;-57
2022/06/26 00:12:32;;;;;;;3.85;0.93;;;10.90;99.90;;;;;;5090346;28;20047;-57
2022/06/26 00:15:00;;;;;;;9.07;1.70;;;10.90;99.90;;;;;;5090549;28;20047;-57
2022/06/26 00:17:28;;;;;;;4.43;1.13;;;10.90;99.90;;;;;;5089507;28;20044;-57
2022/06/26 00:19:56;;;;;;;7.32;0.90;;;10.80;99.90;;;;;;5090527;28;20059;-57
2022/06/26 00:22:24;;;;;;;3.88;1.00;;;10.80;99.90;;;;;;5090408;28;20601;-57
2022/06/26 00:24:51;;;;;;;4.00;1.20;;;10.80;99.90;;;;;;5072525;28;20051;-58
2022/06/26 00:27:19;;;;;;;1.75;0.98;;;10.80;99.90;;;;;;5090675;28;20047;-56
2022/06/26 00:29:47;;;;;;;2.83;1.00;;;10.90;99.90;;;;;;5090379;28;20047;-58
2022/06/26 00:32:14;;;;;;;2.00;1.15;;;10.80;99.90;;;;;;5090255;28;20047;-57
2022/06/26 00:34:42;;;;;;;4.40;1.13;;;10.80;99.90;;;;;;5089028;28;20040;-57
2022/06/26 00:37:10;;;;;;;6.45;1.10;;;10.80;99.90;;;;;;5090278;28;20048;-56
2022/06/26 00:39:38;;;;;;;6.13;1.40;;;10.80;99.90;;;;;;5090047;28;20044;-56
2022/06/26 00:42:05;;;;;;;2.28;0.80;;;10.80;99.90;;;;;;5090445;28;20604;-57
2022/06/26 00:44:33;;;;;;;4.40;1.42;;;10.80;99.90;;;;;;5090165;28;20048;-56
2022/06/26 00:47:01;;;;;;;2.17;1.10;;;10.70;99.90;;;;;;5090210;28;20040;-55
2022/06/26 00:49:29;;;;;;;4.47;2.15;;;10.80;99.90;;;;;;5089837;28;20043;-55
2022/06/26 00:51:56;;;;;;;3.58;0.90;;;10.70;99.90;;;;;;5089982;28;20044;-55
2022/06/26 00:54:26;;;;;;;4.78;1.70;;;10.80;99.90;;;;;;5090205;28;20039;-55
2022/06/26 00:56:56;;;;;;;3.33;1.30;;;10.70;99.90;;;;;;5088953;28;20044;-55
2022/06/26 00:59:25;;;;;;;4.38;1.35;;;10.70;99.90;;;;;;5071709;28;20492;-55
2022/06/26 01:01:53;;;;;;;9.40;1.13;;;10.70;99.90;;;;;;5087306;28;20048;-56
2022/06/26 01:04:21;;;;;;;3.90;0.98;;;10.70;99.90;;;;;;5086668;28;20300;-56
2022/06/26 01:06:50;;;;;;;6.22;1.08;;;10.70;99.90;;;;;;5086126;28;20040;-55
2022/06/26 01:09:18;;;;;;;5.35;1.17;;;10.70;99.90;;;;;;5088663;28;20044;-56
2022/06/26 01:11:47;;;;;;;4.88;1.35;;;10.70;99.90;;;;;;5089234;28;20313;-55
2022/06/26 01:14:16;;;;;;;12.02;1.33;;;10.70;99.90;;;;;;5088585;28;20059;-57
2022/06/26 01:16:43;;;;;;;4.13;0.85;;;10.70;99.90;;;;;;5090038;28;20044;-57
2022/06/26 01:19:16;;;;;;;8.90;1.25;;;10.70;99.90;;;;;;5101883;28;20527;-56
2022/06/26 01:21:44;;;;;;;8.50;1.05;;;10.70;99.90;;;;;;5114131;28;20044;-56
2022/06/26 01:24:13;;;;;;;7.20;1.08;;;10.70;99.90;;;;;;5112741;28;20054;-56
2022/06/26 01:26:42;;;;;;;6.63;2.20;;;10.70;99.90;;;;;;5086707;28;20062;-56
2022/06/26 01:29:09;;;;;;;11.63;1.20;;;10.70;99.90;;;;;;5092693;28;20044;-56
2022/06/26 01:31:38;;;;;;;9.25;1.55;;;10.70;99.90;;;;;;5096533;28;20491;-56
2022/06/26 01:34:08;;;;;;;3.90;0.93;;;10.70;99.90;;;;;;5094125;28;20048;-57
2022/06/26 01:36:36;;;;;;;5.65;1.20;;;10.70;99.90;;;;;;5095523;28;20067;-56
2022/06/26 01:39:05;;;;;;;5.85;1.00;;;10.70;99.90;;;;;;5093878;28;20111;-55
2022/06/26 01:41:33;;;;;;;8.82;1.20;;;10.70;99.90;;;;;;5093905;28;20387;-56
2022/06/26 01:44:00;;;;;;;5.10;1.23;;;10.70;99.90;;;;;;5093899;28;20498;-55
2022/06/26 01:46:28;;;;;;;6.93;1.33;;;10.70;99.90;;;;;;5103088;28;20043;-56
2022/06/26 01:48:57;;;;;;;5.55;0.98;;;10.70;99.90;;;;;;5114381;28;20055;-55
2022/06/26 01:51:26;;;;;;;5.95;0.90;;;10.70;99.90;;;;;;5114181;28;20047;-58
2022/06/26 01:53:53;;;;;;;7.18;1.90;;;10.70;99.90;;;;;;5114254;28;20474;-57
2022/06/26 01:56:21;;;;;;;4.38;0.88;;;10.60;99.90;;;;;;5113934;28;20055;-58
2022/06/26 01:58:50;;;;;;;5.47;0.93;;;10.70;99.90;;;;;;5113558;28;20074;-58
2022/06/26 02:01:26;;;;;;;3.47;0.80;;;10.70;99.90;;;;;;5114089;28;20059;-57
2022/06/26 02:03:54;;;;;;;15.23;1.67;;;10.70;99.90;;;;;;5114088;28;20043;-59
2022/06/26 02:06:22;;;;;;;9.38;1.90;;;10.70;99.90;;;;;;5114867;28;20418;-57
2022/06/26 02:08:49;;;;;;;9.75;1.27;;;10.70;99.90;;;;;;5114182;28;20058;-57
2022/06/26 02:14:03;;;;;;;4.35;1.00;;;10.60;99.90;;;;;;5112412;28;20051;-57
2022/06/26 02:16:42;;;;;;;5.25;1.08;;;10.60;99.90;;;;;;5112579;28;20052;-58
2022/06/26 02:19:12;;;;;;;9.20;2.30;;;10.70;99.90;;;;;;5112500;28;20070;-57
2022/06/26 02:21:40;;;;;;;8.88;1.38;;;10.60;99.90;;;;;;5112640;28;20487;-57
2022/06/26 02:24:08;;;;;;;7.07;0.93;;;10.60;99.90;;;;;;5112824;28;20479;-57
2022/06/26 02:26:35;;;;;;;2.83;1.20;;;10.60;99.90;;;;;;5112498;28;20364;-56
2022/06/26 02:29:04;;;;;;;5.22;1.08;;;10.60;99.90;;;;;;5112361;28;20047;-57
2022/06/26 02:31:32;;;;;;;4.88;1.27;;;10.70;99.90;;;;;;5111804;28;20518;-57
2022/06/26 02:34:00;;;;;;;10.10;1.20;;;10.60;99.90;;;;;;5112402;28;20036;-57
2022/06/26 02:36:28;;;;;;;9.68;1.05;;;10.60;99.90;;;;;;5113724;28;20472;-57
2022/06/26 02:38:55;;;;;;;7.90;1.23;;;10.60;99.90;;;;;;5112027;28;20043;-58
2022/06/26 02:41:23;;;;;;;7.05;1.08;;;10.60;99.90;;;;;;5112270;28;20044;-58
2022/06/26 02:43:51;;;;;;;12.65;1.45;;;10.60;99.90;;;;;;5112106;28;20047;-58
2022/06/26 02:46:19;;;;;;;3.25;1.02;;;10.60;99.90;;;;;;5112032;28;20040;-57
2022/06/26 02:48:48;;;;;;;15.00;1.40;;;10.60;99.90;;;;;;5111985;28;20043;-58
2022/06/26 02:51:19;;;;;;;9.65;1.52;;;10.60;99.90;;;;;;5111882;28;20770;-57
2022/06/26 02:53:46;;;;;;;7.45;1.10;;;10.50;99.90;;;;;;5112094;28;20063;-57
2022/06/26 02:56:14;;;;;;;8.90;1.15;;;10.60;99.90;;;;;;5111974;28;20046;-57
2022/06/26 02:58:42;;;;;;;2.35;0.90;;;10.50;99.90;;;;;;5111888;28;20399;-57
2022/06/26 03:01:12;;;;;;;12.85;1.13;;;10.50;99.90;;;;;;5094816;28;20056;-58
2022/06/26 03:03:40;;;;;;;6.50;1.52;;;10.50;99.90;;;;;;5111870;28;20058;-57
2022/06/26 03:06:10;;;;;;;4.60;1.58;;;10.50;99.90;;;;;;5111788;28;20048;-57
2022/06/26 03:08:38;;;;;;;15.07;1.20;;;10.50;99.90;;;;;;5111783;28;20070;-57
2022/06/26 03:11:06;;;;;;;8.88;0.95;;;10.50;99.90;;;;;;5111721;28;20201;-58
2022/06/26 03:13:34;;;;;;;7.75;1.40;;;10.50;99.90;;;;;;5069445;28;1209547;-58
2022/06/26 03:16:01;;;;;;;4.88;1.00;;;10.50;99.90;;;;;;5112496;28;20398;-57
2022/06/26 03:18:29;;;;;;;6.90;2.08;;;10.50;99.90;;;;;;5112516;28;20052;-57
2022/06/26 03:20:57;;;;;;;7.55;1.00;;;10.50;99.90;;;;;;5112620;28;20047;-58
2022/06/26 03:24:01;;;;;;;9.27;2.75;;;10.40;99.90;;;;;;5112699;28;20093;-59
2022/06/26 03:26:13;;;;;;;3.83;0.88;;;10.40;99.90;;;;;;5112395;28;20048;-58
2022/06/26 03:28:40;;;;;;;11.40;1.45;;;10.50;99.90;;;;;;5095483;28;20051;-59
2022/06/26 03:31:08;;;;;;;8.77;2.88;;;10.40;99.90;;;;;;5112393;28;20040;-57
2022/06/26 03:33:36;;;;;;;18.70;1.80;;;10.40;99.90;;;;;;5112381;28;20038;-58
2022/06/26 03:36:04;;;;;;;9.10;2.13;;;10.40;99.90;;;;;;5113069;28;20051;-54
2022/06/26 03:38:31;;;;;;;8.70;1.10;;;10.40;99.90;;;;;;5112403;28;20039;-55
2022/06/26 03:40:59;;;;;;;5.85;1.13;;;10.40;99.90;;;;;;5113334;28;20475;-55
2022/06/26 03:43:27;;;;;;;8.88;1.83;;;10.40;99.90;;;;;;5111434;28;20517;-55
2022/06/26 03:45:55;;;;;;;7.22;2.22;;;10.40;99.90;;;;;;5095409;28;20039;-57
2022/06/26 03:48:23;;;;;;;9.35;1.27;;;10.40;99.90;;;;;;5113122;28;20052;-56
2022/06/26 03:50:54;;;;;;;5.68;1.05;;;10.40;99.90;;;;;;5111933;28;20055;-57
2022/06/26 03:53:23;;;;;;;6.65;1.65;;;10.40;99.90;;;;;;5111985;28;20048;-57
2022/06/26 03:55:52;;;;;;;8.20;0.90;;;10.40;99.90;;;;;;5113091;28;20055;-57
2022/06/26 03:58:23;;;;;;;6.35;1.10;;;10.50;99.90;;;;;;5111857;28;20062;-58
2022/06/26 04:00:53;;;;;;;7.88;1.08;;;10.40;99.90;;;;;;5111716;28;20055;-58
2022/06/26 04:03:21;;;;;;;11.70;2.45;;;10.50;99.90;;;;;;5112939;28;20043;-58
2022/06/26 04:05:49;;;;;;;13.63;1.35;;;10.40;99.90;;;;;;5111122;28;20043;-57
2022/06/26 04:08:19;;;;;;;4.95;1.10;;;10.40;99.90;;;;;;5111735;28;20042;-59
2022/06/26 04:11:00;;;;;;;5.30;0.80;;;10.40;99.90;;;;;;5111625;28;20062;-57
2022/06/26 04:13:34;;;;;;;11.20;2.22;;;10.40;99.90;;;;;;5111405;28;20048;-57
2022/06/26 04:16:02;;;;;;;5.55;1.02;;;10.40;99.90;;;;;;5094491;28;20133;-57
2022/06/26 04:18:32;;;;;;;8.77;1.55;;;10.50;99.90;;;;;;5078018;28;20062;-57
2022/06/26 04:21:01;;;;;;;5.90;1.00;;;10.50;99.90;;;;;;5111417;28;20054;-56
2022/06/26 04:23:29;;;;;;;8.95;1.60;;;10.50;99.90;;;;;;5111367;28;20497;-58
2022/06/26 04:26:06;;;;;;;4.95;0.93;;;10.50;99.90;;;;;;5111186;28;20048;-56
2022/06/26 04:28:34;;;;;;;9.80;1.65;;;10.50;99.90;;;;;;5111179;28;20052;-57
2022/06/26 04:31:06;;;;;;;9.43;1.38;;;10.50;99.90;;;;;;5111221;28;20483;-58
2022/06/26 04:33:37;;;;;;;7.82;1.38;;;10.50;99.90;;;;;;5111248;28;20043;-57
2022/06/26 04:36:07;;;;;;;9.35;1.33;;;10.60;99.90;;;;;;5094266;28;20048;-56
2022/06/26 04:38:37;;;;;;;4.38;1.27;;;10.60;99.90;;;;;;5111221;28;20511;-55
2022/06/26 04:43:51;;;;;;;7.25;1.00;;;10.60;99.90;;;;;;5111217;28;20043;-57
2022/06/26 04:46:19;;;;;;;4.40;0.93;;;10.70;99.90;;;;;;5111070;28;20051;-55
2022/06/26 04:48:47;;;;;;;4.45;1.60;;;10.70;99.90;;;;;;5090175;28;20039;-56
2022/06/26 04:51:17;;;;;;;4.63;1.67;;;10.70;99.90;;;;;;5087160;28;20047;-57
2022/06/26 04:53:45;;;;;;;3.88;0.75;;;10.80;99.90;;;;;;5087149;28;20040;-56
2022/06/26 04:56:13;;;;;;;14.55;1.30;;;10.80;99.90;;;;;;5087360;28;20044;-56
2022/06/26 04:58:59;;;;;;;7.30;1.00;;;10.80;99.90;;;;;;5087038;28;20400;-56
2022/06/26 05:01:27;;;;;;;3.75;1.00;;;10.80;99.90;;;;;;5053948;28;20059;-57
2022/06/26 05:04:07;;;;;;;9.15;0.93;;;10.80;99.90;;;;;;5103145;28;20557;-57
2022/06/26 05:06:41;;;;;;;9.93;2.35;;;10.80;99.90;;;;;;5106920;28;20047;-57
2022/06/26 05:09:21;;;;;;;6.90;0.90;;;10.80;99.90;;;;;;5097706;28;20040;-56
2022/06/26 05:11:49;;;;;;;;;;;10.80;99.90;;;;;;5086797;28;20044;-56
2022/06/26 05:14:18;;;;;;;10.98;1.50;;;10.80;99.90;;;;;;5085368;28;19920;-55
2022/06/26 05:16:58;;;;;;;7.78;1.40;;;10.80;99.90;;;;;;5085842;28;20044;-55
2022/06/26 05:19:30;;;;;;;6.97;1.00;;;10.90;99.90;;;;;;5085809;28;20519;-56
2022/06/26 05:21:59;;;;;;;7.15;1.13;;;10.90;99.90;;;;;;5085503;28;20403;-57
2022/06/26 05:24:26;;;;;;;7.00;0.80;;;10.90;99.90;;;;;;5085872;28;20063;-57
2022/06/26 05:26:54;;;;;;;12.27;1.25;;;11.00;99.90;;;;;;5086884;28;20044;-57
2022/06/26 05:29:23;;;;;;;4.88;1.90;;;11.00;99.90;;;;;;5088353;28;20051;-56
2022/06/26 05:31:57;;;;;;;4.93;0.80;;;11.10;99.90;;;;;;5086230;28;20047;-56
2022/06/26 05:34:25;;;;;;;6.10;1.05;;;11.20;99.90;;;;;;5084515;28;20044;-56
2022/06/26 05:36:53;;;;;;;12.57;1.10;;;11.30;99.90;;;;;;5087012;28;20040;-56
2022/06/26 05:39:21;;;;;;;7.75;1.88;;;11.40;99.90;;;;;;5078968;28;20051;-57
2022/06/26 05:41:48;;;;;;;6.75;1.23;;;11.50;99.90;;;;;;5088311;28;20047;-58
2022/06/26 05:44:16;;;;;;;9.95;2.03;;;11.60;99.90;;;;;;5071258;28;20055;-57
2022/06/26 05:46:50;;;;;;;10.60;1.42;;;11.70;99.90;;;;;;5087653;28;20059;-56
2022/06/26 05:49:38;;;;;;;8.68;1.50;;;11.80;99.90;;;;;;5086327;28;20059;-56
2022/06/26 05:52:35;;;;;;;6.78;1.73;;;11.90;99.90;;;;;;5101743;28;20059;-57
2022/06/26 05:55:21;;;;;;;6.93;0.80;;;11.90;99.90;;;;;;5085301;28;20055;-55
2022/06/26 05:58:07;;;;;;;6.95;1.67;;;12.00;99.90;;;;;;5073647;28;20059;-56
2022/06/26 06:01:03;;;;;;;13.30;1.15;;;12.00;99.90;;;;;;5072005;28;20060;-57
2022/06/26 06:03:31;;;;;;;4.38;1.05;;;12.10;99.90;;;;;;5067825;28;20048;-57
2022/06/26 06:05:59;;;;;;;11.43;1.40;;;12.10;99.90;;;;;;5087982;28;20040;-56
2022/06/26 06:08:28;;;;;;;4.88;1.00;;;12.10;99.90;;;;;;5075180;28;20063;-56
2022/06/26 06:10:56;;;;;;;3.83;0.75;;;12.20;99.90;;;;;;5091962;28;20043;-55
2022/06/26 06:13:24;;;;;;;9.73;0.95;;;12.30;99.90;;;;;;5091760;28;20099;-56
2022/06/26 06:15:51;;;;;;;5.97;0.93;;;12.30;99.90;;;;;;5091900;28;20036;-58
2022/06/26 06:18:20;;;;;;;6.20;0.85;;;12.40;99.90;;;;;;5091752;28;20055;-57
2022/06/26 06:20:50;;;;;;;10.80;1.60;;;12.50;99.90;;;;;;5074697;28;20044;-57
2022/06/26 06:23:36;;;;;;;5.07;0.65;;;12.60;99.90;;;;;;5093306;28;20044;-58
2022/06/26 06:26:04;;;;;;;5.82;0.85;;;12.70;99.90;;;;;;5091413;28;20047;-57
2022/06/26 06:28:33;;;;;;;4.05;0.80;;;12.80;99.90;;;;;;5104538;28;20046;-58
2022/06/26 06:31:00;;;;;;;6.68;0.70;;;13.00;99.90;;;;;;5094601;28;20057;-58
2022/06/26 06:33:29;;;;;;;3.53;0.70;;;13.10;99.90;;;;;;5094603;28;20403;-57
2022/06/26 06:35:58;;;;;;;12.15;1.23;;;13.20;99.90;;;;;;5110999;28;20510;-57
2022/06/26 06:38:29;;;;;;;5.97;1.00;;;13.20;99.90;;;;;;5111249;28;20036;-57
2022/06/26 06:41:02;;;;;;;6.28;1.08;;;13.30;99.90;;;;;;5074226;28;20511;-57
2022/06/26 06:43:39;;;;;;;6.15;0.70;;;13.30;99.90;;;;;;5091184;28;20047;-58
2022/06/26 06:46:25;;;;;;;7.00;0.93;;;13.40;99.90;;;;;;5092246;28;20036;-58
2022/06/26 06:49:05;;;;;;;8.00;1.08;;;13.40;99.90;;;;;;5091008;28;20236;-58
2022/06/26 06:51:53;;;;;;;7.65;1.20;;;13.40;99.90;;;;;;5089652;28;20044;-59
2022/06/26 06:54:24;;;;;;;3.90;0.70;;;13.50;99.90;;;;;;5088803;28;20051;-57
2022/06/26 06:56:52;;;;;;;5.07;1.67;;;13.50;99.90;;;;;;5087480;28;20044;-58
2022/06/26 06:59:20;;;;;;;4.82;0.73;;;13.60;99.90;;;;;;5089776;28;20055;-58
2022/06/26 07:01:48;;;;;;;7.85;1.25;;;13.60;99.90;;;;;;5108915;28;20059;-57
2022/06/26 07:04:15;;;;;;;7.15;1.15;;;13.70;99.90;;;;;;5109023;28;20050;-57
2022/06/26 07:06:54;;;;;;;7.78;1.08;;;13.80;99.90;;;;;;5108744;28;20077;-57
2022/06/26 07:09:21;;;;;;;8.35;1.63;;;13.80;99.90;;;;;;5105200;28;20054;-57
2022/06/26 07:11:49;;;;;;;5.70;0.90;;;13.90;99.90;;;;;;5090943;28;20040;-57
2022/06/26 07:14:24;;;;;;;3.17;1.00;;;13.90;99.90;;;;;;5074826;28;20511;-57
2022/06/26 07:16:51;;;;;;;6.95;1.27;;;13.90;99.90;;;;;;5088870;28;20056;-56
2022/06/26 07:19:19;;;;;;;5.47;0.80;;;14.00;99.90;;;;;;5090550;28;20644;-57
2022/06/26 07:21:47;;;;;;;6.57;1.35;;;14.10;99.90;;;;;;5090604;28;20070;-56
2022/06/26 07:24:15;;;;;;;7.72;1.60;;;14.30;99.90;;;;;;5090903;28;20042;-56
2022/06/26 07:27:06;;;;;;;8.82;1.92;;;14.40;99.90;;;;;;5089915;28;20044;-56
2022/06/26 07:29:39;;;;;;;9.93;1.15;;;14.50;99.90;;;;;;5090259;28;20040;-56
2022/06/26 07:32:13;;;;;;;3.97;0.95;;;14.60;99.90;;;;;;5090214;28;20048;-57
2022/06/26 07:34:40;;;;;;;5.45;0.80;;;14.70;99.90;;;;;;5090406;28;20047;-57
2022/06/26 07:37:08;;;;;;;7.05;1.30;;;14.70;99.90;;;;;;5091413;28;20372;-58
2022/06/26 07:39:36;;;;;;;10.35;0.98;;;14.70;99.90;;;;;;5090558;28;20051;-57
2022/06/26 07:42:04;;;;;;;9.50;0.93;;;14.70;99.90;;;;;;5091436;28;20387;-57
2022/06/26 07:44:33;;;;;;;5.68;0.90;;;14.60;99.90;;;;;;5090046;28;20055;-58
2022/06/26 07:47:01;;;;;;;5.28;1.15;;;14.60;99.90;;;;;;5090017;28;20055;-57
2022/06/26 07:49:45;;;;;;;6.45;0.80;;;14.50;99.90;;;;;;5072928;28;20052;-57
2022/06/26 07:52:13;;;;;;;4.40;0.77;;;14.60;99.90;;;;;;5089850;28;20039;-57
2022/06/26 07:54:41;;;;;;;8.88;1.17;;;14.70;99.90;;;;;;5091505;28;20044;-58
2022/06/26 07:57:08;;;;;;;4.38;1.02;;;14.70;99.90;;;;;;5090726;28;20055;-58
2022/06/26 07:59:36;;;;;;;5.47;0.80;;;14.80;99.90;;;;;;5089636;28;20055;-58
2022/06/26 08:02:04;;;;;;;6.00;1.13;;;14.80;99.90;;;;;;5090807;28;20048;-58
2022/06/26 08:04:32;;;;;;;7.85;0.80;;;14.80;99.90;;;;;;5090811;28;20048;-58
2022/06/26 08:07:00;;;;;;;7.38;1.17;;;14.80;99.90;;;;;;5090846;28;20048;-58
2022/06/26 08:09:28;;;;;;;5.80;0.85;;;14.80;99.90;;;;;;5090941;28;20048;-58
2022/06/26 08:11:56;;;;;;;5.57;0.82;;;14.80;99.90;;;;;;5090719;28;20051;-58
2022/06/26 08:14:24;;;;;;;5.82;1.27;;;14.80;99.90;;;;;;5090648;28;20048;-58
2022/06/26 08:16:51;;;;;;;7.10;1.70;;;14.90;99.90;;;;;;5088733;28;20048;-58
2022/06/26 08:19:19;;;;;;;2.92;0.90;;;15.00;99.90;;;;;;5086770;28;20063;-57
2022/06/26 08:22:02;;;;;;;7.07;1.90;;;15.00;99.90;;;;;;5086462;28;20130;-56
2022/06/26 08:24:31;;;;;;;7.30;1.00;;;15.10;99.90;;;;;;5090872;28;20055;-58
2022/06/26 08:27:00;;;;;;;3.57;1.03;;;15.30;99.90;;;;;;5090879;28;20081;-58
2022/06/26 08:29:28;;;;;;;10.98;1.30;;;15.70;99.90;;;;;;5090695;28;20070;-57
2022/06/26 08:31:55;;;;;;;5.70;1.00;;;15.60;99.90;;;;;;5090812;28;20556;-57
2022/06/26 08:34:23;;;;;;;4.43;0.70;;;15.80;99.90;;;;;;5091774;28;20040;-58
2022/06/26 08:36:52;;;;;;;6.10;0.88;;;15.80;99.90;;;;;;5090859;28;20471;-59
2022/06/26 08:39:21;;;;;;;9.40;1.30;;;15.90;99.90;;;;;;5090223;28;20052;-58
2022/06/26 08:41:50;;;;;;;7.53;0.90;;;15.90;99.90;;;;;;5091313;28;20040;-57
2022/06/26 08:44:18;;;;;;;6.15;0.88;;;15.80;99.90;;;;;;5090603;28;20055;-58
2022/06/26 08:46:46;;;;;;;4.05;0.63;;;15.90;99.90;;;;;;5090614;28;20044;-56
2022/06/26 08:49:23;;;;;;;7.50;1.10;;;16.10;99.90;;;;;;5089044;28;20391;-57
2022/06/26 08:51:59;;;;;;;12.75;3.03;;;16.20;99.90;;;;;;5090135;28;20052;-58
2022/06/26 08:54:28;;;;;;;6.75;0.95;;;16.40;99.80;;;;;;5090260;28;20055;-58
2022/06/26 08:56:57;;;;;;;4.45;0.70;;;16.50;99.60;;;;;;5089797;28;20063;-58
2022/06/26 08:59:27;;;;;;;5.73;1.70;;;16.60;98.40;;;;;;5089860;28;20051;-58
2022/06/26 09:01:54;;;;;;;7.53;0.95;;;16.50;97.90;;;;;;5090052;28;20047;-59
2022/06/26 09:04:22;;;;;;;9.23;1.30;;;16.50;97.40;;;;;;5089840;28;20051;-58
2022/06/26 09:06:50;;;;;;;8.68;1.15;;;16.50;97.90;;;;;;5089654;28;20048;-60
2022/06/26 09:09:23;;;;;;;6.22;1.58;;;16.50;97.50;;;;;;5088606;28;20407;-59
2022/06/26 09:11:57;;;;;;;5.32;0.98;;;16.40;97.00;;;;;;5090267;28;20044;-58
2022/06/26 09:14:26;;;;;;;5.68;0.93;;;16.40;97.30;;;;;;5089360;28;20040;-59
2022/06/26 09:16:54;;;;;;;6.15;0.93;;;16.30;97.00;;;;;;5089347;28;20040;-58
2022/06/26 09:19:30;;;;;;;6.18;1.17;;;16.20;97.50;;;;;;5091945;28;20051;-58
2022/06/26 09:22:15;;;;;;;10.00;1.27;;;16.10;98.30;;;;;;5089945;28;20059;-60
2022/06/26 09:24:55;;;;;;;8.32;1.20;;;16.10;98.20;;;;;;5089944;28;20051;-59
2022/06/26 09:27:23;;;;;;;5.00;0.63;;;16.20;97.80;;;;;;5090111;28;20048;-60
2022/06/26 09:29:53;;;;;;;6.07;1.30;;;16.30;96.80;;;;;;5089818;28;20044;-60
2022/06/26 09:32:22;;;;;;;4.50;1.40;;;16.40;96.50;;;;;;5089996;28;20058;-60
2022/06/26 09:34:54;;;;;;;9.30;1.88;;;16.40;96.30;;;;;;5090068;28;20498;-59
2022/06/26 09:37:23;;;;;;;3.88;0.93;;;16.50;95.90;;;;;;5107468;28;20042;-59
2022/06/26 09:40:17;;;;;;;5.85;0.90;;;16.70;96.20;;;;;;5090435;28;20047;-59
2022/06/26 09:42:45;;;;;;;10.40;1.02;;;16.90;96.40;;;;;;5093239;28;20058;-58
2022/06/26 09:45:12;;;;;;;8.13;0.95;;;17.10;96.20;;;;;;5093737;28;20048;-58
2022/06/26 09:47:43;;;;;;;3.33;0.70;;;17.40;94.90;;;;;;5092861;28;20052;-58
2022/06/26 09:50:11;;;;;;;4.88;1.00;;;17.60;93.80;;;;;;5093520;28;20593;-59
2022/06/26 09:52:39;;;;;;;6.30;0.90;;;17.60;93.40;;;;;;5093703;28;20491;-59
2022/06/26 09:55:08;;;;;;;6.57;0.70;;;17.70;92.70;;;;;;5093411;28;20043;-58
2022/06/26 09:57:36;;;;;;;11.95;1.80;;;17.80;93.40;;;;;;5105558;28;20050;-59
2022/06/26 10:00:06;;;;;;;4.77;0.70;;;17.90;93.20;;;;;;5093781;28;20044;-58
2022/06/26 10:08:21;;;;;;;2.80;0.98;;;18.10;91.30;;;;;;5091783;28;20055;-57
2022/06/26 10:10:49;;;;;;;4.03;0.73;;;18.00;91.40;;;;;;5091548;28;20060;-57
2022/06/26 10:13:24;;;;;;;5.93;0.70;;;18.00;90.90;;;;;;5093802;28;20111;-56
2022/06/26 10:15:57;;;;;;;6.40;0.88;;;18.00;90.60;;;;;;5112866;28;20044;-57
2022/06/26 10:18:43;;;;;;;3.80;1.10;;;17.90;90.10;;;;;;5102289;28;20052;-56
2022/06/26 10:21:13;;;;;;;6.00;1.20;;;17.80;90.50;;;;;;5091775;28;20527;-58
2022/06/26 10:23:42;;;;;;;7.35;1.02;;;17.70;91.50;;;;;;5101811;28;20495;-56
2022/06/26 10:26:16;;;;;;;8.43;0.88;;;17.80;91.60;;;;;;5092806;28;20044;-57
2022/06/26 10:28:57;;;;;;;4.97;0.85;;;17.90;90.60;;;;;;5092633;28;20044;-57
2022/06/26 10:31:25;;;;;;;5.40;0.70;;;18.00;90.00;;;;;;5092701;28;20604;-57
2022/06/26 10:33:53;;;;;;;5.45;1.40;;;17.90;90.40;;;;;;5093225;28;20037;-56
2022/06/26 10:36:24;;;;;;;5.88;0.82;;;18.10;90.60;;;;;;5092827;28;20052;-57
2022/06/26 10:39:04;;;;;;;6.65;0.98;;;18.20;90.40;;;;;;5092881;28;20056;-57
2022/06/26 10:44:44;;;;;;;10.70;1.23;;;18.50;90.10;;;;;;5091191;28;20407;-57
2022/06/26 10:47:16;;;;;;;4.85;0.70;;;18.70;88.10;;;;;;5093137;28;20040;-60
2022/06/26 10:49:52;;;;;;;4.18;0.70;;;18.80;88.40;;;;;;5091615;28;20482;-59
2022/06/26 10:52:28;;;;;;;3.40;0.80;;;19.00;87.20;;;;;;5093690;28;20048;-58
2022/06/26 10:55:00;;;;;;;10.40;1.15;;;19.10;85.30;;;;;;5107807;28;20036;-58
2022/06/26 10:57:36;;;;;;;3.20;0.93;;;19.20;85.60;;;;;;5094682;28;20048;-57
2022/06/26 11:00:07;;;;;;;5.07;0.60;;;19.20;85.10;;;;;;5092190;28;20392;-57
2022/06/26 11:02:40;;;;;;;5.22;0.93;;;19.30;85.00;;;;;;5092198;28;20052;-56
2022/06/26 11:05:09;;;;;;;3.60;1.20;;;19.30;82.60;;;;;;5092258;28;20048;-57
2022/06/26 11:08:03;;;;;;;5.75;0.90;;;19.40;83.70;;;;;;5091964;28;20040;-58
2022/06/26 11:10:33;;;;;;;6.78;0.65;;;19.60;82.60;;;;;;5089022;28;20043;-58
2022/06/26 11:13:01;;;;;;;;;;;19.60;83.20;;;;;;5092367;28;20044;-57
2022/06/26 11:15:32;;;;;;;7.03;0.90;;;19.80;82.10;;;;;;5092006;28;19928;-57
2022/06/26 11:18:02;;;;;;;5.57;1.20;;;20.00;82.00;;;;;;5091809;28;20051;-57
2022/06/26 11:20:53;;;;;;;;;;;20.00;81.50;;;;;;5092864;28;20055;-57
2022/06/26 11:23:33;;;;;;;2.28;0.40;;;20.10;79.30;;;;;;5091749;28;19927;-58
2022/06/26 11:26:05;;;;;;;5.35;0.77;;;20.20;80.10;;;;;;5091546;28;20373;-59
2022/06/26 11:28:35;;;;;;;3.13;0.50;;;20.30;80.80;;;;;;5091337;28;20059;-59
2022/06/26 11:31:05;;;;;;;2.60;0.55;;;20.40;80.40;;;;;;5111651;28;20040;-59
2022/06/26 11:33:36;;;;;;;4.65;0.75;;;20.40;78.50;;;;;;5092261;28;20056;-60
2022/06/26 11:36:16;;;;;;;3.95;0.73;;;20.40;79.70;;;;;;5107746;28;20044;-59
2022/06/26 11:38:50;;;;;;;11.18;1.27;;;20.40;78.50;;;;;;5091398;28;20390;-59
2022/06/26 11:41:19;;;;;;;8.07;1.00;;;20.30;78.20;;;;;;5091175;28;20044;-58
2022/06/26 11:43:50;;;;;;;4.80;0.85;;;20.30;78.70;;;;;;5090966;28;20063;-58
2022/06/26 11:46:18;;;;;;;4.72;0.90;;;20.50;79.60;;;;;;5091005;28;20395;-58
2022/06/26 11:48:49;;;;;;;4.72;0.65;;;20.70;79.40;;;;;;5090890;28;20051;-58
2022/06/26 11:51:18;;;;;;;3.90;1.35;;;20.80;78.30;;;;;;5090532;28;20032;-58
2022/06/26 11:53:48;;;;;;;4.07;0.80;;;20.90;77.10;;;;;;5090891;28;20055;-58
2022/06/26 11:56:22;;;;;;;3.08;1.08;;;21.00;78.20;;;;;;5089737;28;20580;-58
2022/06/26 11:58:52;;;;;;;3.55;0.63;;;21.20;77.00;;;;;;5090973;28;20052;-58
2022/06/26 12:01:21;;;;;;;5.38;0.77;;;21.40;76.20;;;;;;5091217;28;20427;-60
2022/06/26 12:03:49;;;;;;;4.82;1.00;;;21.40;76.00;;;;;;5090319;28;20082;-59
2022/06/26 12:06:26;;;;;;;6.32;1.00;;;21.30;76.00;;;;;;5090724;28;20047;-58
2022/06/26 12:08:55;;;;;;;2.47;0.65;;;21.20;75.60;;;;;;5090985;28;20040;-59
2022/06/26 12:11:24;;;;;;;5.45;0.95;;;21.00;75.40;;;;;;5090211;28;20036;-59
2022/06/26 12:13:52;;;;;;;5.90;0.88;;;20.80;74.90;;;;;;5091622;28;20055;-60
2022/06/26 12:16:21;;;;;;;4.28;1.38;;;20.60;75.40;;;;;;5090072;28;20044;-59
2022/06/26 12:18:49;;;;;;;5.35;0.80;;;20.40;75.20;;;;;;5090447;28;20063;-59
2022/06/26 12:21:20;;;;;;;7.95;1.60;;;20.20;75.80;;;;;;5090834;28;20518;-58
2022/06/26 12:23:51;;;;;;;10.25;1.10;;;20.10;77.30;;;;;;5091177;28;20051;-59
2022/06/26 12:26:22;;;;;;;8.30;0.77;;;20.10;77.80;;;;;;5091233;28;20040;-59
2022/06/26 12:29:00;;;;;;;5.07;0.68;;;20.10;77.00;;;;;;5090444;28;20048;-58
2022/06/26 12:31:27;;;;;;;8.38;0.80;;;20.00;76.40;;;;;;5088893;28;20043;-59
2022/06/26 12:33:55;;;;;;;6.75;1.25;;;19.90;76.90;;;;;;5090571;28;20040;-59
2022/06/26 12:36:23;;;;;;;3.88;1.02;;;19.80;77.40;;;;;;5090217;28;20487;-59
2022/06/26 12:38:50;;;;;;;5.95;1.08;;;19.80;76.80;;;;;;5090330;28;20044;-56
2022/06/26 12:41:18;;;;;;;7.07;0.85;;;19.70;76.30;;;;;;5088853;28;20071;-57
2022/06/26 12:43:52;;;;;;;1.88;0.50;;;19.70;75.70;;;;;;5088619;28;20055;-58
2022/06/26 12:46:25;;;;;;;6.93;0.98;;;19.60;75.80;;;;;;5101216;28;20623;-58
2022/06/26 12:48:53;;;;;;;3.10;0.63;;;19.50;76.20;;;;;;5096059;28;20044;-57
2022/06/26 12:51:24;;;;;;;5.40;2.03;;;19.40;76.40;;;;;;5089554;28;20043;-57
2022/06/26 12:53:52;;;;;;;6.30;0.88;;;19.50;76.60;;;;;;5090011;28;20055;-59
2022/06/26 12:56:20;;;;;;;2.38;0.73;;;19.60;76.60;;;;;;5090024;28;20051;-59
2022/06/26 12:58:49;;;;;;;3.47;0.85;;;19.80;77.10;;;;;;5089390;28;20060;-58
2022/06/26 13:01:16;;;;;;;3.42;0.70;;;20.20;75.60;;;;;;5088606;28;20275;-58
2022/06/26 13:03:46;;;;;;;2.67;0.65;;;20.40;74.10;;;;;;5086686;28;20067;-58
2022/06/26 13:06:14;;;;;;;1.20;0.47;;;20.40;74.70;;;;;;5086445;28;20048;-59
2022/06/26 13:08:41;;;;;;;6.15;0.85;;;20.50;73.60;;;;;;5089942;28;20056;-58
2022/06/26 13:11:24;;;;;;;4.13;0.50;;;20.80;72.20;;;;;;5089976;28;20495;-58
2022/06/26 13:13:53;;;;;;;4.43;0.50;;;21.10;72.50;;;;;;5090153;28;20063;-58
2022/06/26 13:16:39;;;;;;;6.35;1.00;;;21.50;71.10;;;;;;5093845;28;20036;-58